sensor_id;sensor_type;location;lat;lon;timestamp;pressure;altitude;pressure_sealevel;temperature;humidity
64835;BME280;51293;59.296;18.006;2022-10-04T00:04:50;100901.13;;;7.06;100.00
64835;BME280;51293;59.296;18.006;2022-10-04T00:07:24;100904.03;;;7.04;100.00
64835;BME280;51293;59.296;18.006;2022-10-04T00:09:56;100904.03;;;7.18;100.00
64835;BME280;51293;59.296;18.006;2022-10-04T00:12:46;100899.03;;;7.08;100.00
64835;BME280;51293;59.296;18.006;2022-10-04T00:15:21;100892.00;;;7.07;100.00
64835;BME280;51293;59.296;18.006;2022-10-04T00:25:56;100900.69;;;6.96;100.00
64835;BME280;51293;59.296;18.006;2022-10-04T00:33:50;100888.03;;;6.90;100.00
64835;BME280;51293;59.296;18.006;2022-10-04T00:49:39;100889.22;;;6.74;100.00
64835;BME280;51293;59.296;18.006;2022-10-04T00:52:12;100894.19;;;6.70;100.00
64835;BME280;51293;59.296;18.006;2022-10-04T00:54:42;100890.22;;;6.66;100.00
64835;BME280;51293;59.296;18.006;2022-10-04T00:57:12;100888.34;;;6.67;100.00
64835;BME280;51293;59.296;18.006;2022-10-04T00:59:47;100882.13;;;6.66;100.00
64835;BME280;51293;59.296;18.006;2022-10-04T01:02:22;100883.59;;;6.62;100.00
64835;BME280;51293;59.296;18.006;2022-10-04T01:05:03;100884.78;;;6.60;100.00
64835;BME280;51293;59.296;18.006;2022-10-04T01:07:32;100888.09;;;6.62;100.00
64835;BME280;51293;59.296;18.006;2022-10-04T01:10:05;100887.28;;;6.61;100.00
64835;BME280;51293;59.296;18.006;2022-10-04T01:15:08;100884.78;;;6.60;100.00
64835;BME280;51293;59.296;18.006;2022-10-04T01:17:36;100881.47;;;6.58;100.00
64835;BME280;51293;59.296;18.006;2022-10-04T01:20:02;100874.66;;;6.55;100.00
64835;BME280;51293;59.296;18.006;2022-10-04T01:22:42;100886.63;;;6.53;100.00
64835;BME280;51293;59.296;18.006;2022-10-04T01:25:08;100890.56;;;6.50;100.00
64835;BME280;51293;59.296;18.006;2022-10-04T01:30:09;100898.38;;;6.45;100.00
64835;BME280;51293;59.296;18.006;2022-10-04T01:32:36;100889.69;;;6.43;100.00
64835;BME280;51293;59.296;18.006;2022-10-04T01:35:03;100887.19;;;6.41;100.00
64835;BME280;51293;59.296;18.006;2022-10-04T01:37:28;100897.34;;;6.39;100.00
64835;BME280;51293;59.296;18.006;2022-10-04T01:39:54;100895.47;;;6.40;100.00
64835;BME280;51293;59.296;18.006;2022-10-04T01:42:25;100905.78;;;6.36;100.00
64835;BME280;51293;59.296;18.006;2022-10-04T01:45:18;100905.78;;;6.36;100.00
64835;BME280;51293;59.296;18.006;2022-10-04T01:47:57;100899.56;;;6.29;100.00
64835;BME280;51293;59.296;18.006;2022-10-04T01:50:31;100903.66;;;6.25;100.00
64835;BME280;51293;59.296;18.006;2022-10-04T01:53:08;100900.16;;;6.25;100.00
64835;BME280;51293;59.296;18.006;2022-10-04T01:55:36;100904.91;;;6.23;100.00
64835;BME280;51293;59.296;18.006;2022-10-04T01:58:18;100907.13;;;6.19;100.00
64835;BME280;51293;59.296;18.006;2022-10-04T02:00:58;100897.81;;;6.15;100.00
64835;BME280;51293;59.296;18.006;2022-10-04T02:04:04;100901.75;;;6.12;100.00
64835;BME280;51293;59.296;18.006;2022-10-04T02:06:22;100894.06;;;6.09;100.00
64835;BME280;51293;59.296;18.006;2022-10-04T02:08:49;100894.25;;;6.08;100.00
64835;BME280;51293;59.296;18.006;2022-10-04T02:11:18;100897.78;;;6.08;100.00
64835;BME280;51293;59.296;18.006;2022-10-04T02:13:47;100901.91;;;6.11;100.00
64835;BME280;51293;59.296;18.006;2022-10-04T02:16:15;100900.47;;;6.08;100.00
64835;BME280;51293;59.296;18.006;2022-10-04T02:18:43;100895.88;;;6.02;100.00
64835;BME280;51293;59.296;18.006;2022-10-04T02:21:10;100900.41;;;6.02;100.00
64835;BME280;51293;59.296;18.006;2022-10-04T02:23:38;100894.41;;;6.00;100.00
64835;BME280;51293;59.296;18.006;2022-10-04T02:26:06;100897.09;;;6.00;100.00
64835;BME280;51293;59.296;18.006;2022-10-04T02:28:34;100902.31;;;6.08;100.00
64835;BME280;51293;59.296;18.006;2022-10-04T02:31:01;100898.13;;;5.99;100.00
64835;BME280;51293;59.296;18.006;2022-10-04T02:33:48;100896.66;;;5.96;100.00
64835;BME280;51293;59.296;18.006;2022-10-04T02:36:14;100898.69;;;5.94;100.00
64835;BME280;51293;59.296;18.006;2022-10-04T02:38:48;100899.94;;;5.91;100.00
64835;BME280;51293;59.296;18.006;2022-10-04T02:41:28;100903.81;;;5.89;100.00
64835;BME280;51293;59.296;18.006;2022-10-04T02:46:27;100899.00;;;5.84;100.00
64835;BME280;51293;59.296;18.006;2022-10-04T02:48:57;100896.34;;;5.84;100.00
64835;BME280;51293;59.296;18.006;2022-10-04T02:51:51;100880.41;;;5.83;100.00
64835;BME280;51293;59.296;18.006;2022-10-04T02:56:52;100896.94;;;5.80;100.00
64835;BME280;51293;59.296;18.006;2022-10-04T02:59:18;100896.28;;;5.78;100.00
64835;BME280;51293;59.296;18.006;2022-10-04T03:01:56;100896.28;;;5.78;100.00
64835;BME280;51293;59.296;18.006;2022-10-04T03:04:25;100899.63;;;5.80;100.00
64835;BME280;51293;59.296;18.006;2022-10-04T03:06:52;100903.97;;;5.81;100.00
64835;BME280;51293;59.296;18.006;2022-10-04T03:09:20;100911.63;;;5.84;100.00
64835;BME280;51293;59.296;18.006;2022-10-04T03:11:47;100906.66;;;5.81;100.00
64835;BME280;51293;59.296;18.006;2022-10-04T03:14:25;100901.84;;;5.76;100.00
64835;BME280;51293;59.296;18.006;2022-10-04T03:16:54;100904.94;;;5.73;100.00
64835;BME280;51293;59.296;18.006;2022-10-04T03:19:22;100891.69;;;5.72;100.00
64835;BME280;51293;59.296;18.006;2022-10-04T03:21:52;100896.41;;;5.70;100.00
64835;BME280;51293;59.296;18.006;2022-10-04T03:24:22;100900.13;;;5.69;100.00
64835;BME280;51293;59.296;18.006;2022-10-04T03:26:54;100897.25;;;5.70;100.00
64835;BME280;51293;59.296;18.006;2022-10-04T03:29:23;100893.50;;;5.64;100.00
64835;BME280;51293;59.296;18.006;2022-10-04T03:31:50;100902.75;;;5.62;100.00
64835;BME280;51293;59.296;18.006;2022-10-04T03:34:19;100894.69;;;5.62;100.00
64835;BME280;51293;59.296;18.006;2022-10-04T03:36:47;100892.59;;;5.57;100.00
64835;BME280;51293;59.296;18.006;2022-10-04T03:39:44;100893.84;;;5.55;100.00
64835;BME280;51293;59.296;18.006;2022-10-04T03:42:14;100890.94;;;5.56;100.00
64835;BME280;51293;59.296;18.006;2022-10-04T03:44:42;100890.69;;;5.51;100.00
64835;BME280;51293;59.296;18.006;2022-10-04T03:47:20;100893.19;;;5.53;100.00
64835;BME280;51293;59.296;18.006;2022-10-04T03:49:46;100888.00;;;5.51;100.00
64835;BME280;51293;59.296;18.006;2022-10-04T03:52:41;100891.31;;;5.53;100.00
64835;BME280;51293;59.296;18.006;2022-10-04T03:55:06;100896.69;;;5.53;99.81
64835;BME280;51293;59.296;18.006;2022-10-04T03:57:34;100897.28;;;5.49;99.88
64835;BME280;51293;59.296;18.006;2022-10-04T04:00:04;100888.78;;;5.45;100.00
64835;BME280;51293;59.296;18.006;2022-10-04T04:02:42;100897.84;;;5.44;100.00
64835;BME280;51293;59.296;18.006;2022-10-04T04:05:19;100890.81;;;5.43;100.00
64835;BME280;51293;59.296;18.006;2022-10-04T04:08:05;100889.16;;;5.42;100.00
64835;BME280;51293;59.296;18.006;2022-10-04T04:10:37;100878.63;;;5.41;100.00
64835;BME280;51293;59.296;18.006;2022-10-04T04:15:38;100882.69;;;5.36;100.00
64835;BME280;51293;59.296;18.006;2022-10-04T04:18:13;100888.28;;;5.35;100.00
64835;BME280;51293;59.296;18.006;2022-10-04T04:20:41;100892.63;;;5.36;100.00
64835;BME280;51293;59.296;18.006;2022-10-04T04:25:42;100893.72;;;5.42;99.51
64835;BME280;51293;59.296;18.006;2022-10-04T04:28:31;100898.44;;;5.40;99.18
64835;BME280;51293;59.296;18.006;2022-10-04T04:31:01;100890.19;;;5.41;98.99
64835;BME280;51293;59.296;18.006;2022-10-04T04:33:31;100892.06;;;5.41;99.27
64835;BME280;51293;59.296;18.006;2022-10-04T04:36:09;100893.50;;;5.43;98.58
64835;BME280;51293;59.296;18.006;2022-10-04T04:38:36;100889.78;;;5.44;98.51
64835;BME280;51293;59.296;18.006;2022-10-04T04:41:22;100888.53;;;5.40;98.70
64835;BME280;51293;59.296;18.006;2022-10-04T04:43:48;100882.53;;;5.38;99.08
64835;BME280;51293;59.296;18.006;2022-10-04T04:46:14;100879.19;;;5.36;99.30
64835;BME280;51293;59.296;18.006;2022-10-04T04:48:42;100867.81;;;5.34;99.02
64835;BME280;51293;59.296;18.006;2022-10-04T04:51:16;100872.97;;;5.35;99.35
64835;BME280;51293;59.296;18.006;2022-10-04T04:53:44;100873.88;;;5.43;99.20
64835;BME280;51293;59.296;18.006;2022-10-04T04:56:16;100874.84;;;5.35;99.04
64835;BME280;51293;59.296;18.006;2022-10-04T04:58:45;100879.13;;;5.29;99.03
64835;BME280;51293;59.296;18.006;2022-10-04T05:01:22;100886.34;;;5.29;98.96
64835;BME280;51293;59.296;18.006;2022-10-04T05:06:35;100894.41;;;5.29;98.17
64835;BME280;51293;59.296;18.006;2022-10-04T05:09:00;100898.31;;;5.26;98.11
64835;BME280;51293;59.296;18.006;2022-10-04T05:11:32;100898.19;;;5.34;97.70
64835;BME280;51293;59.296;18.006;2022-10-04T05:14:02;100893.22;;;5.31;97.68
64835;BME280;51293;59.296;18.006;2022-10-04T05:19:18;100884.34;;;5.38;97.36
64835;BME280;51293;59.296;18.006;2022-10-04T05:21:46;100883.16;;;5.40;97.05
64835;BME280;51293;59.296;18.006;2022-10-04T05:24:18;100886.22;;;5.37;97.20
64835;BME280;51293;59.296;18.006;2022-10-04T05:26:48;100884.19;;;5.39;96.92
64835;BME280;51293;59.296;18.006;2022-10-04T05:29:17;100872.78;;;5.37;97.02
64835;BME280;51293;59.296;18.006;2022-10-04T05:31:48;100886.03;;;5.39;96.91
64835;BME280;51293;59.296;18.006;2022-10-04T05:34:29;100880.47;;;5.40;97.29
64835;BME280;51293;59.296;18.006;2022-10-04T05:37:08;100887.31;;;5.43;97.16
64835;BME280;51293;59.296;18.006;2022-10-04T05:39:47;100882.41;;;5.46;96.72
64835;BME280;51293;59.296;18.006;2022-10-04T05:42:38;100888.59;;;5.47;96.89
64835;BME280;51293;59.296;18.006;2022-10-04T05:47:46;100871.88;;;5.51;96.61
64835;BME280;51293;59.296;18.006;2022-10-04T05:50:19;100874.63;;;5.58;96.22
64835;BME280;51293;59.296;18.006;2022-10-04T05:52:46;100870.72;;;5.60;96.42
64835;BME280;51293;59.296;18.006;2022-10-04T06:06:27;100873.72;;;5.72;95.85
64835;BME280;51293;59.296;18.006;2022-10-04T06:12:16;100877.97;;;5.88;94.94
64835;BME280;51293;59.296;18.006;2022-10-04T06:17:55;100886.91;;;5.95;94.38
64835;BME280;51293;59.296;18.006;2022-10-04T06:20:45;100890.47;;;6.02;94.02
64835;BME280;51293;59.296;18.006;2022-10-04T06:23:17;100891.97;;;6.05;93.17
64835;BME280;51293;59.296;18.006;2022-10-04T06:25:47;100882.47;;;6.09;92.18
64835;BME280;51293;59.296;18.006;2022-10-04T06:44:50;100893.03;;;6.52;90.54
64835;BME280;51293;59.296;18.006;2022-10-04T06:50:32;100882.97;;;6.67;90.11
64835;BME280;51293;59.296;18.006;2022-10-04T06:53:16;100885.28;;;6.76;90.19
64835;BME280;51293;59.296;18.006;2022-10-04T07:01:32;100887.41;;;7.01;88.93
64835;BME280;51293;59.296;18.006;2022-10-04T07:06:36;100875.03;;;7.20;87.43
64835;BME280;51293;59.296;18.006;2022-10-04T07:09:04;100878.13;;;7.17;87.29
64835;BME280;51293;59.296;18.006;2022-10-04T07:11:42;100883.13;;;7.26;86.95
64835;BME280;51293;59.296;18.006;2022-10-04T07:14:14;100884.78;;;7.34;86.02
64835;BME280;51293;59.296;18.006;2022-10-04T07:16:56;100886.66;;;7.33;85.60
64835;BME280;51293;59.296;18.006;2022-10-04T07:19:33;100894.75;;;7.40;86.00
64835;BME280;51293;59.296;18.006;2022-10-04T07:27:16;100897.44;;;7.60;84.98
64835;BME280;51293;59.296;18.006;2022-10-04T07:29:45;100900.59;;;7.64;85.50
64835;BME280;51293;59.296;18.006;2022-10-04T07:32:33;100900.78;;;7.69;85.28
64835;BME280;51293;59.296;18.006;2022-10-04T07:37:57;100905.34;;;7.81;83.98
64835;BME280;51293;59.296;18.006;2022-10-04T07:40:31;100901.59;;;7.89;83.14
64835;BME280;51293;59.296;18.006;2022-10-04T07:43:09;100898.47;;;7.99;82.99
64835;BME280;51293;59.296;18.006;2022-10-04T07:45:38;100908.63;;;8.10;82.78
64835;BME280;51293;59.296;18.006;2022-10-04T07:53:29;100904.22;;;8.49;80.79
64835;BME280;51293;59.296;18.006;2022-10-04T07:56:01;100905.84;;;8.56;80.99
64835;BME280;51293;59.296;18.006;2022-10-04T07:58:39;100915.16;;;8.67;80.20
64835;BME280;51293;59.296;18.006;2022-10-04T08:01:36;100913.09;;;8.69;79.30
64835;BME280;51293;59.296;18.006;2022-10-04T08:06:55;100910.09;;;8.84;78.71
64835;BME280;51293;59.296;18.006;2022-10-04T08:12:41;100905.59;;;9.09;78.72
64835;BME280;51293;59.296;18.006;2022-10-04T08:15:08;100914.09;;;9.19;78.12
64835;BME280;51293;59.296;18.006;2022-10-04T08:28:38;100903.25;;;10.26;74.67
64835;BME280;51293;59.296;18.006;2022-10-04T08:42:49;100890.56;;;11.65;68.51
64835;BME280;51293;59.296;18.006;2022-10-04T08:57:24;100896.28;;;13.42;59.55
64835;BME280;51293;59.296;18.006;2022-10-04T09:18:20;100889.94;;;14.04;56.05
64835;BME280;51293;59.296;18.006;2022-10-04T09:46:07;100907.66;;;13.11;59.95
64835;BME280;51293;59.296;18.006;2022-10-04T10:08:23;100927.19;;;12.32;62.66
64835;BME280;51293;59.296;18.006;2022-10-04T10:19:46;100922.47;;;12.51;60.82
64835;BME280;51293;59.296;18.006;2022-10-04T11:00:21;100875.66;;;13.01;56.53
64835;BME280;51293;59.296;18.006;2022-10-04T11:03:33;100882.16;;;13.00;56.27
64835;BME280;51293;59.296;18.006;2022-10-04T11:12:26;100872.13;;;13.46;57.03
64835;BME280;51293;59.296;18.006;2022-10-04T11:33:01;100866.50;;;14.42;53.19
64835;BME280;51293;59.296;18.006;2022-10-04T11:35:32;100871.09;;;14.58;52.69
64835;BME280;51293;59.296;18.006;2022-10-04T11:38:27;100864.94;;;14.68;52.68
64835;BME280;51293;59.296;18.006;2022-10-04T11:41:06;100866.78;;;14.84;51.57
64835;BME280;51293;59.296;18.006;2022-10-04T11:43:57;100858.59;;;14.84;50.77
64835;BME280;51293;59.296;18.006;2022-10-04T11:49:32;100849.88;;;15.14;49.89
64835;BME280;51293;59.296;18.006;2022-10-04T11:52:18;100853.44;;;15.41;49.68
64835;BME280;51293;59.296;18.006;2022-10-04T11:58:46;100843.28;;;15.64;49.29
64835;BME280;51293;59.296;18.006;2022-10-04T12:03:58;100845.69;;;15.97;49.26
64835;BME280;51293;59.296;18.006;2022-10-04T12:06:43;100846.63;;;16.18;47.94
64835;BME280;51293;59.296;18.006;2022-10-04T12:12:15;100846.78;;;16.54;46.40
64835;BME280;51293;59.296;18.006;2022-10-04T12:21:22;100846.69;;;16.96;45.06
64835;BME280;51293;59.296;18.006;2022-10-04T12:32:17;100843.44;;;17.20;45.15
64835;BME280;51293;59.296;18.006;2022-10-04T12:48:35;100844.03;;;17.78;42.09
64835;BME280;51293;59.296;18.006;2022-10-04T12:54:19;100852.78;;;17.34;41.71
64835;BME280;51293;59.296;18.006;2022-10-04T12:59:44;100841.28;;;17.22;43.12
64835;BME280;51293;59.296;18.006;2022-10-04T13:02:32;100837.19;;;17.39;42.65
64835;BME280;51293;59.296;18.006;2022-10-04T13:05:21;100832.53;;;17.50;42.29
64835;BME280;51293;59.296;18.006;2022-10-04T13:10:50;100827.03;;;17.50;41.57
64835;BME280;51293;59.296;18.006;2022-10-04T13:13:46;100831.97;;;17.48;41.90
64835;BME280;51293;59.296;18.006;2022-10-04T13:19:23;100824.59;;;17.79;42.63
64835;BME280;51293;59.296;18.006;2022-10-04T13:22:15;100815.22;;;18.06;42.08
64835;BME280;51293;59.296;18.006;2022-10-04T13:28:32;100818.00;;;17.65;41.98
64835;BME280;51293;59.296;18.006;2022-10-04T13:30:52;100822.91;;;17.68;41.94
64835;BME280;51293;59.296;18.006;2022-10-04T13:36:09;100824.56;;;17.54;42.31
64835;BME280;51293;59.296;18.006;2022-10-04T13:46:41;100807.63;;;17.72;42.38
64835;BME280;51293;59.296;18.006;2022-10-04T14:01:02;100800.19;;;17.52;43.69
64835;BME280;51293;59.296;18.006;2022-10-04T14:09:06;100802.41;;;17.15;43.96
64835;BME280;51293;59.296;18.006;2022-10-04T14:14:31;100811.19;;;16.34;46.01
64835;BME280;51293;59.296;18.006;2022-10-04T14:25:50;100788.22;;;15.45;48.76
64835;BME280;51293;59.296;18.006;2022-10-04T14:33:46;100786.06;;;14.88;50.72
64835;BME280;51293;59.296;18.006;2022-10-04T14:39:03;100776.91;;;14.72;51.78
64835;BME280;51293;59.296;18.006;2022-10-04T14:44:32;100777.84;;;14.56;52.64
64835;BME280;51293;59.296;18.006;2022-10-04T14:55:57;100769.03;;;14.27;53.76
64835;BME280;51293;59.296;18.006;2022-10-04T15:01:19;100769.63;;;14.07;54.49
64835;BME280;51293;59.296;18.006;2022-10-04T15:06:37;100781.94;;;13.93;55.05
64835;BME280;51293;59.296;18.006;2022-10-04T15:17:39;100773.31;;;13.62;56.07
64835;BME280;51293;59.296;18.006;2022-10-04T15:20:23;100772.38;;;13.52;56.93
64835;BME280;51293;59.296;18.006;2022-10-04T15:23:08;100769.06;;;13.49;57.44
64835;BME280;51293;59.296;18.006;2022-10-04T15:25:44;100773.03;;;13.42;57.45
64835;BME280;51293;59.296;18.006;2022-10-04T15:28:23;100780.53;;;13.35;58.26
64835;BME280;51293;59.296;18.006;2022-10-04T15:33:35;100772.00;;;13.14;59.82
64835;BME280;51293;59.296;18.006;2022-10-04T15:36:23;100771.56;;;13.06;59.70
64835;BME280;51293;59.296;18.006;2022-10-04T15:38:56;100770.75;;;13.05;60.85
64835;BME280;51293;59.296;18.006;2022-10-04T15:41:53;100757.41;;;12.87;61.69
64835;BME280;51293;59.296;18.006;2022-10-04T15:44:58;100761.34;;;12.79;62.27
64835;BME280;51293;59.296;18.006;2022-10-04T15:55:30;100762.50;;;12.55;63.18
64835;BME280;51293;59.296;18.006;2022-10-04T15:59:14;100764.78;;;12.46;64.21
64835;BME280;51293;59.296;18.006;2022-10-04T16:12:30;100754.75;;;12.06;67.25
64835;BME280;51293;59.296;18.006;2022-10-04T16:15:19;100752.78;;;12.02;67.63
64835;BME280;51293;59.296;18.006;2022-10-04T16:23:43;100741.72;;;11.80;69.10
64835;BME280;51293;59.296;18.006;2022-10-04T16:28:56;100744.03;;;11.65;70.14
64835;BME280;51293;59.296;18.006;2022-10-04T16:36:52;100737.69;;;11.47;71.55
64835;BME280;51293;59.296;18.006;2022-10-04T16:39:48;100731.69;;;11.45;71.44
64835;BME280;51293;59.296;18.006;2022-10-04T16:50:12;100731.94;;;11.44;71.81
64835;BME280;51293;59.296;18.006;2022-10-04T17:06:57;100715.44;;;11.34;72.65
64835;BME280;51293;59.296;18.006;2022-10-04T17:09:31;100715.16;;;11.23;73.43
64835;BME280;51293;59.296;18.006;2022-10-04T17:23:49;100698.78;;;11.18;73.77
64835;BME280;51293;59.296;18.006;2022-10-04T17:29:19;100714.59;;;11.21;73.52
64835;BME280;51293;59.296;18.006;2022-10-04T17:37:25;100715.06;;;11.30;72.52
64835;BME280;51293;59.296;18.006;2022-10-04T17:42:54;100715.63;;;11.32;72.84
64835;BME280;51293;59.296;18.006;2022-10-04T17:48:02;100714.22;;;11.41;72.42
64835;BME280;51293;59.296;18.006;2022-10-04T17:51:12;100711.28;;;11.43;72.62
64835;BME280;51293;59.296;18.006;2022-10-04T17:54:10;100715.53;;;11.50;72.26
64835;BME280;51293;59.296;18.006;2022-10-04T17:57:12;100711.63;;;11.46;72.49
64835;BME280;51293;59.296;18.006;2022-10-04T17:59:43;100711.28;;;11.43;73.31
64835;BME280;51293;59.296;18.006;2022-10-04T18:02:26;100699.47;;;11.49;72.96
64835;BME280;51293;59.296;18.006;2022-10-04T18:04:57;100707.75;;;11.42;73.82
64835;BME280;51293;59.296;18.006;2022-10-04T18:07:32;100701.97;;;11.39;73.99
64835;BME280;51293;59.296;18.006;2022-10-04T18:13:18;100710.09;;;11.39;73.80
64835;BME280;51293;59.296;18.006;2022-10-04T18:15:57;100716.47;;;11.33;74.04
64835;BME280;51293;59.296;18.006;2022-10-04T18:18:39;100713.75;;;11.33;74.65
64835;BME280;51293;59.296;18.006;2022-10-04T18:21:18;100708.31;;;11.33;74.50
64835;BME280;51293;59.296;18.006;2022-10-04T18:24:17;100705.50;;;11.28;75.22
64835;BME280;51293;59.296;18.006;2022-10-04T18:26:57;100709.28;;;11.27;75.24
64835;BME280;51293;59.296;18.006;2022-10-04T18:29:41;100697.72;;;11.19;75.61
64835;BME280;51293;59.296;18.006;2022-10-04T18:32:31;100705.13;;;11.24;75.73
64835;BME280;51293;59.296;18.006;2022-10-04T18:34:58;100708.31;;;11.33;75.75
64835;BME280;51293;59.296;18.006;2022-10-04T18:40:12;100711.75;;;11.28;76.28
64835;BME280;51293;59.296;18.006;2022-10-04T18:42:41;100703.50;;;11.23;76.57
64835;BME280;51293;59.296;18.006;2022-10-04T18:45:33;100703.88;;;11.27;76.82
64835;BME280;51293;59.296;18.006;2022-10-04T18:48:00;100697.50;;;11.21;76.94
64835;BME280;51293;59.296;18.006;2022-10-04T18:50:38;100691.81;;;11.22;76.99
64835;BME280;51293;59.296;18.006;2022-10-04T18:56:08;100693.72;;;11.22;77.77
64835;BME280;51293;59.296;18.006;2022-10-04T19:01:47;100715.88;;;11.31;78.05
64835;BME280;51293;59.296;18.006;2022-10-04T19:07:14;100705.97;;;11.24;78.52
64835;BME280;51293;59.296;18.006;2022-10-04T19:09:50;100704.69;;;11.27;78.93
64835;BME280;51293;59.296;18.006;2022-10-04T19:12:22;100700.78;;;11.23;79.06
64835;BME280;51293;59.296;18.006;2022-10-04T19:18:03;100713.16;;;11.31;79.12
64835;BME280;51293;59.296;18.006;2022-10-04T19:20:39;100708.69;;;11.24;79.74
64835;BME280;51293;59.296;18.006;2022-10-04T19:23:24;100703.38;;;11.30;79.62
64835;BME280;51293;59.296;18.006;2022-10-04T19:26:00;100700.09;;;11.28;80.09
64835;BME280;51293;59.296;18.006;2022-10-04T19:28:31;100688.66;;;11.37;80.27
64835;BME280;51293;59.296;18.006;2022-10-04T19:34:03;100664.84;;;11.28;80.95
64835;BME280;51293;59.296;18.006;2022-10-04T19:36:59;100664.13;;;11.32;81.09
64835;BME280;51293;59.296;18.006;2022-10-04T19:39:40;100671.53;;;11.25;81.80
64835;BME280;51293;59.296;18.006;2022-10-04T19:42:13;100673.44;;;11.24;81.84
64835;BME280;51293;59.296;18.006;2022-10-04T19:46:00;100668.00;;;11.24;81.97
64835;BME280;51293;59.296;18.006;2022-10-04T19:47:59;100663.06;;;11.21;82.63
64835;BME280;51293;59.296;18.006;2022-10-04T19:50:38;100666.84;;;11.20;82.52
64835;BME280;51293;59.296;18.006;2022-10-04T19:55:59;100685.72;;;11.27;82.66
64835;BME280;51293;59.296;18.006;2022-10-04T19:58:40;100675.31;;;11.24;82.78
64835;BME280;51293;59.296;18.006;2022-10-04T20:01:13;100682.53;;;11.18;83.09
64835;BME280;51293;59.296;18.006;2022-10-04T20:03:40;100668.50;;;11.21;82.81
64835;BME280;51293;59.296;18.006;2022-10-04T20:06:06;100672.63;;;11.12;83.78
64835;BME280;51293;59.296;18.006;2022-10-04T20:11:49;100672.13;;;11.15;83.45
64835;BME280;51293;59.296;18.006;2022-10-04T20:35:02;100667.69;;;11.09;85.44
64835;BME280;51293;59.296;18.006;2022-10-04T20:45:42;100664.00;;;11.15;85.51
64835;BME280;51293;59.296;18.006;2022-10-04T20:48:25;100650.56;;;11.09;85.93
64835;BME280;51293;59.296;18.006;2022-10-04T20:50:51;100660.00;;;11.06;86.57
64835;BME280;51293;59.296;18.006;2022-10-04T20:53:21;100652.94;;;11.05;86.52
64835;BME280;51293;59.296;18.006;2022-10-04T20:55:48;100646.09;;;11.03;86.73
64835;BME280;51293;59.296;18.006;2022-10-04T21:01:04;100631.59;;;11.09;86.86
64835;BME280;51293;59.296;18.006;2022-10-04T21:03:52;100625.97;;;11.10;86.73
64835;BME280;51293;59.296;18.006;2022-10-04T21:06:17;100625.72;;;11.12;86.67
64835;BME280;51293;59.296;18.006;2022-10-04T21:08:42;100617.47;;;11.07;87.21
64835;BME280;51293;59.296;18.006;2022-10-04T21:13:46;100616.06;;;11.04;87.45
64835;BME280;51293;59.296;18.006;2022-10-04T21:16:32;100628.19;;;11.02;87.83
64835;BME280;51293;59.296;18.006;2022-10-04T21:21:59;100629.03;;;11.02;87.86
64835;BME280;51293;59.296;18.006;2022-10-04T21:24:36;100623.47;;;11.09;87.57
64835;BME280;51293;59.296;18.006;2022-10-04T21:27:03;100619.25;;;11.01;88.14
64835;BME280;51293;59.296;18.006;2022-10-04T21:29:29;100604.63;;;11.02;88.45
64835;BME280;51293;59.296;18.006;2022-10-04T21:31:55;100598.84;;;10.98;88.55
64835;BME280;51293;59.296;18.006;2022-10-04T21:34:21;100600.03;;;11.03;88.43
64835;BME280;51293;59.296;18.006;2022-10-04T21:36:47;100601.69;;;11.04;88.16
64835;BME280;51293;59.296;18.006;2022-10-04T21:39:12;100605.09;;;10.99;88.67
64835;BME280;51293;59.296;18.006;2022-10-04T21:41:38;100601.91;;;11.02;88.86
64835;BME280;51293;59.296;18.006;2022-10-04T21:44:03;100596.38;;;10.97;89.17
64835;BME280;51293;59.296;18.006;2022-10-04T21:46:28;100585.28;;;10.98;89.26
64835;BME280;51293;59.296;18.006;2022-10-04T21:48:54;100592.59;;;10.98;89.10
64835;BME280;51293;59.296;18.006;2022-10-04T21:51:19;100595.31;;;10.98;89.25
64835;BME280;51293;59.296;18.006;2022-10-04T21:53:44;100588.72;;;10.94;89.63
64835;BME280;51293;59.296;18.006;2022-10-04T21:56:10;100591.19;;;10.95;90.00
64835;BME280;51293;59.296;18.006;2022-10-04T21:58:35;100592.59;;;10.98;90.60
64835;BME280;51293;59.296;18.006;2022-10-04T22:01:00;100596.84;;;10.94;90.57
64835;BME280;51293;59.296;18.006;2022-10-04T22:03:26;100590.63;;;10.93;91.01
64835;BME280;51293;59.296;18.006;2022-10-04T22:05:51;100602.97;;;10.89;91.23
64835;BME280;51293;59.296;18.006;2022-10-04T22:08:16;100602.63;;;10.86;91.99
64835;BME280;51293;59.296;18.006;2022-10-04T22:10:42;100605.00;;;10.94;91.85
64835;BME280;51293;59.296;18.006;2022-10-04T22:13:08;100605.69;;;10.89;92.20
64835;BME280;51293;59.296;18.006;2022-10-04T22:15:34;100610.75;;;10.86;92.83
64835;BME280;51293;59.296;18.006;2022-10-04T22:17:59;100595.44;;;10.80;93.96
64835;BME280;51293;59.296;18.006;2022-10-04T22:20:25;100591.09;;;10.79;93.90
64835;BME280;51293;59.296;18.006;2022-10-04T22:22:52;100591.19;;;10.84;93.06
64835;BME280;51293;59.296;18.006;2022-10-04T22:25:20;100592.16;;;10.78;94.23
64835;BME280;51293;59.296;18.006;2022-10-04T22:27:46;100588.25;;;10.74;94.77
64835;BME280;51293;59.296;18.006;2022-10-04T22:30:32;100590.59;;;10.70;95.06
64835;BME280;51293;59.296;18.006;2022-10-04T22:33:00;100595.19;;;10.69;95.39
64835;BME280;51293;59.296;18.006;2022-10-04T22:35:29;100586.84;;;10.71;95.26
64835;BME280;51293;59.296;18.006;2022-10-04T22:37:54;100582.72;;;10.68;95.20
64835;BME280;51293;59.296;18.006;2022-10-04T22:40:22;100586.00;;;10.71;95.65
64835;BME280;51293;59.296;18.006;2022-10-04T22:42:50;100582.09;;;10.66;96.00
64835;BME280;51293;59.296;18.006;2022-10-04T22:45:24;100578.56;;;10.66;96.09